sensor_id;sensor_type;location;lat;lon;timestamp;temperature;humidity
19588;DHT22;9940;47.252;8.696;2023-05-07T00:01:39;17.40;98.50
19588;DHT22;9940;47.252;8.696;2023-05-07T00:04:05;17.40;98.70
19588;DHT22;9940;47.252;8.696;2023-05-07T00:06:31;17.30;98.80
19588;DHT22;9940;47.252;8.696;2023-05-07T00:08:57;17.30;98.90
19588;DHT22;9940;47.252;8.696;2023-05-07T00:11:26;17.30;99.00
19588;DHT22;9940;47.252;8.696;2023-05-07T00:13:52;17.30;98.90
19588;DHT22;9940;47.252;8.696;2023-05-07T00:16:18;17.20;98.90
19588;DHT22;9940;47.252;8.696;2023-05-07T00:18:43;17.20;98.90
19588;DHT22;9940;47.252;8.696;2023-05-07T00:21:10;17.20;98.90
19588;DHT22;9940;47.252;8.696;2023-05-07T00:23:36;17.20;98.90
19588;DHT22;9940;47.252;8.696;2023-05-07T00:26:02;17.20;98.90
19588;DHT22;9940;47.252;8.696;2023-05-07T00:28:30;17.20;98.90
19588;DHT22;9940;47.252;8.696;2023-05-07T00:30:58;17.20;98.90
19588;DHT22;9940;47.252;8.696;2023-05-07T00:33:24;17.20;98.80
19588;DHT22;9940;47.252;8.696;2023-05-07T00:35:52;17.20;98.70
19588;DHT22;9940;47.252;8.696;2023-05-07T00:38:17;17.10;98.50
19588;DHT22;9940;47.252;8.696;2023-05-07T00:40:45;17.10;98.40
19588;DHT22;9940;47.252;8.696;2023-05-07T00:43:11;17.10;98.40
19588;DHT22;9940;47.252;8.696;2023-05-07T00:45:40;17.00;98.40
19588;DHT22;9940;47.252;8.696;2023-05-07T00:48:08;17.00;98.50
19588;DHT22;9940;47.252;8.696;2023-05-07T00:50:37;17.00;98.50
19588;DHT22;9940;47.252;8.696;2023-05-07T00:53:07;17.00;98.60
19588;DHT22;9940;47.252;8.696;2023-05-07T00:55:33;16.90;98.80
19588;DHT22;9940;47.252;8.696;2023-05-07T00:57:58;16.90;98.90
19588;DHT22;9940;47.252;8.696;2023-05-07T01:00:29;16.80;99.00
19588;DHT22;9940;47.252;8.696;2023-05-07T01:02:54;16.80;99.10
19588;DHT22;9940;47.252;8.696;2023-05-07T01:05:21;16.80;99.20
19588;DHT22;9940;47.252;8.696;2023-05-07T01:07:49;16.80;99.20
19588;DHT22;9940;47.252;8.696;2023-05-07T01:10:15;16.70;99.10
19588;DHT22;9940;47.252;8.696;2023-05-07T01:12:44;16.70;99.20
19588;DHT22;9940;47.252;8.696;2023-05-07T01:15:14;16.70;99.20
19588;DHT22;9940;47.252;8.696;2023-05-07T01:17:41;16.60;99.30
19588;DHT22;9940;47.252;8.696;2023-05-07T01:20:08;16.60;99.50
19588;DHT22;9940;47.252;8.696;2023-05-07T01:22:39;16.60;99.90
19588;DHT22;9940;47.252;8.696;2023-05-07T01:25:06;16.50;99.70
19588;DHT22;9940;47.252;8.696;2023-05-07T01:27:32;16.50;99.70
19588;DHT22;9940;47.252;8.696;2023-05-07T01:30:03;16.60;99.60
19588;DHT22;9940;47.252;8.696;2023-05-07T01:33:20;16.60;99.60
19588;DHT22;9940;47.252;8.696;2023-05-07T01:35:43;16.60;99.60
19588;DHT22;9940;47.252;8.696;2023-05-07T01:38:11;16.50;99.50
19588;DHT22;9940;47.252;8.696;2023-05-07T01:40:37;16.50;99.40
19588;DHT22;9940;47.252;8.696;2023-05-07T01:43:03;16.50;99.40
19588;DHT22;9940;47.252;8.696;2023-05-07T01:45:33;16.50;99.40
19588;DHT22;9940;47.252;8.696;2023-05-07T01:47:59;16.50;99.40
19588;DHT22;9940;47.252;8.696;2023-05-07T01:50:26;16.50;99.40
19588;DHT22;9940;47.252;8.696;2023-05-07T01:52:52;16.50;99.50
19588;DHT22;9940;47.252;8.696;2023-05-07T01:55:18;16.50;99.50
19588;DHT22;9940;47.252;8.696;2023-05-07T01:57:43;16.40;99.50
19588;DHT22;9940;47.252;8.696;2023-05-07T02:00:09;16.40;99.60
19588;DHT22;9940;47.252;8.696;2023-05-07T02:02:35;16.40;99.70
19588;DHT22;9940;47.252;8.696;2023-05-07T02:05:04;16.40;99.90
19588;DHT22;9940;47.252;8.696;2023-05-07T02:07:32;16.30;99.90
19588;DHT22;9940;47.252;8.696;2023-05-07T02:09:57;16.30;99.90
19588;DHT22;9940;47.252;8.696;2023-05-07T02:12:23;16.30;99.90
19588;DHT22;9940;47.252;8.696;2023-05-07T02:14:49;16.30;99.90
19588;DHT22;9940;47.252;8.696;2023-05-07T02:17:17;16.30;99.90
19588;DHT22;9940;47.252;8.696;2023-05-07T02:19:42;16.30;99.90
19588;DHT22;9940;47.252;8.696;2023-05-07T02:22:11;16.30;99.90
19588;DHT22;9940;47.252;8.696;2023-05-07T02:24:38;16.30;99.90
19588;DHT22;9940;47.252;8.696;2023-05-07T02:27:04;16.30;99.90
19588;DHT22;9940;47.252;8.696;2023-05-07T02:29:34;16.20;99.90
19588;DHT22;9940;47.252;8.696;2023-05-07T02:32:03;16.20;99.90
19588;DHT22;9940;47.252;8.696;2023-05-07T02:34:28;16.20;99.90
19588;DHT22;9940;47.252;8.696;2023-05-07T02:36:54;16.10;99.90
19588;DHT22;9940;47.252;8.696;2023-05-07T02:39:20;16.10;99.90
19588;DHT22;9940;47.252;8.696;2023-05-07T02:41:48;16.10;99.90
19588;DHT22;9940;47.252;8.696;2023-05-07T02:44:16;16.10;99.90
19588;DHT22;9940;47.252;8.696;2023-05-07T02:46:44;16.10;99.90
19588;DHT22;9940;47.252;8.696;2023-05-07T02:49:12;16.10;99.90
19588;DHT22;9940;47.252;8.696;2023-05-07T02:51:38;16.00;99.90
19588;DHT22;9940;47.252;8.696;2023-05-07T02:54:05;16.00;99.90
19588;DHT22;9940;47.252;8.696;2023-05-07T02:56:32;15.90;99.90
19588;DHT22;9940;47.252;8.696;2023-05-07T02:58:57;15.90;99.90
19588;DHT22;9940;47.252;8.696;2023-05-07T03:01:26;15.90;99.90
19588;DHT22;9940;47.252;8.696;2023-05-07T03:03:51;15.80;99.90
19588;DHT22;9940;47.252;8.696;2023-05-07T03:06:19;15.80;99.90
19588;DHT22;9940;47.252;8.696;2023-05-07T03:08:47;15.80;99.90
19588;DHT22;9940;47.252;8.696;2023-05-07T03:11:13;15.80;99.90
19588;DHT22;9940;47.252;8.696;2023-05-07T03:13:38;15.80;99.90
19588;DHT22;9940;47.252;8.696;2023-05-07T03:16:04;15.80;99.90
19588;DHT22;9940;47.252;8.696;2023-05-07T03:18:30;15.80;99.90
19588;DHT22;9940;47.252;8.696;2023-05-07T03:20:56;15.80;99.90
19588;DHT22;9940;47.252;8.696;2023-05-07T03:23:24;15.80;99.90
19588;DHT22;9940;47.252;8.696;2023-05-07T03:25:49;15.80;99.90
19588;DHT22;9940;47.252;8.696;2023-05-07T03:28:15;15.70;99.90
19588;DHT22;9940;47.252;8.696;2023-05-07T03:30:45;15.70;99.90
19588;DHT22;9940;47.252;8.696;2023-05-07T03:33:13;15.70;99.90
19588;DHT22;9940;47.252;8.696;2023-05-07T03:35:39;15.70;99.90
19588;DHT22;9940;47.252;8.696;2023-05-07T03:38:07;15.70;99.90
19588;DHT22;9940;47.252;8.696;2023-05-07T03:40:35;15.70;99.90
19588;DHT22;9940;47.252;8.696;2023-05-07T03:43:01;15.70;99.90
19588;DHT22;9940;47.252;8.696;2023-05-07T03:45:26;15.70;99.90
19588;DHT22;9940;47.252;8.696;2023-05-07T03:47:54;15.70;99.90
19588;DHT22;9940;47.252;8.696;2023-05-07T03:50:22;15.70;99.90
19588;DHT22;9940;47.252;8.696;2023-05-07T03:52:48;15.70;99.90
19588;DHT22;9940;47.252;8.696;2023-05-07T03:55:14;15.70;99.90
19588;DHT22;9940;47.252;8.696;2023-05-07T03:57:39;15.70;99.90
19588;DHT22;9940;47.252;8.696;2023-05-07T04:00:05;15.70;99.90
19588;DHT22;9940;47.252;8.696;2023-05-07T04:02:33;15.70;99.90
19588;DHT22;9940;47.252;8.696;2023-05-07T04:04:58;15.70;99.90
19588;DHT22;9940;47.252;8.696;2023-05-07T04:07:24;15.70;99.90
19588;DHT22;9940;47.252;8.696;2023-05-07T04:09:49;15.70;99.90
19588;DHT22;9940;47.252;8.696;2023-05-07T04:12:18;15.70;99.90
19588;DHT22;9940;47.252;8.696;2023-05-07T04:14:43;15.60;99.90
19588;DHT22;9940;47.252;8.696;2023-05-07T04:17:12;15.60;99.90
19588;DHT22;9940;47.252;8.696;2023-05-07T04:19:37;15.60;99.90
19588;DHT22;9940;47.252;8.696;2023-05-07T04:22:03;15.60;99.90
19588;DHT22;9940;47.252;8.696;2023-05-07T04:24:31;15.60;99.90
19588;DHT22;9940;47.252;8.696;2023-05-07T04:26:58;15.70;99.90
19588;DHT22;9940;47.252;8.696;2023-05-07T04:29:27;15.70;99.90
19588;DHT22;9940;47.252;8.696;2023-05-07T04:31:52;15.70;99.90
19588;DHT22;9940;47.252;8.696;2023-05-07T04:34:18;15.70;99.90
19588;DHT22;9940;47.252;8.696;2023-05-07T04:36:48;15.70;99.90
19588;DHT22;9940;47.252;8.696;2023-05-07T04:39:16;15.70;99.90
19588;DHT22;9940;47.252;8.696;2023-05-07T04:41:42;15.80;99.90
19588;DHT22;9940;47.252;8.696;2023-05-07T04:44:10;15.80;99.90
19588;DHT22;9940;47.252;8.696;2023-05-07T04:46:38;15.80;99.90
19588;DHT22;9940;47.252;8.696;2023-05-07T04:49:04;15.80;99.90
19588;DHT22;9940;47.252;8.696;2023-05-07T04:51:31;15.90;99.90
19588;DHT22;9940;47.252;8.696;2023-05-07T04:53:58;15.90;99.90
19588;DHT22;9940;47.252;8.696;2023-05-07T04:56:26;15.90;99.90
19588;DHT22;9940;47.252;8.696;2023-05-07T04:58:52;16.00;99.90
19588;DHT22;9940;47.252;8.696;2023-05-07T05:01:18;16.00;99.90
19588;DHT22;9940;47.252;8.696;2023-05-07T05:03:44;16.00;99.90
19588;DHT22;9940;47.252;8.696;2023-05-07T05:06:09;16.00;99.90
19588;DHT22;9940;47.252;8.696;2023-05-07T05:08:35;16.10;99.90
19588;DHT22;9940;47.252;8.696;2023-05-07T05:11:01;16.10;99.90
19588;DHT22;9940;47.252;8.696;2023-05-07T05:13:27;16.10;99.90
19588;DHT22;9940;47.252;8.696;2023-05-07T05:15:53;16.10;99.90
19588;DHT22;9940;47.252;8.696;2023-05-07T05:18:23;16.10;99.90
19588;DHT22;9940;47.252;8.696;2023-05-07T05:20:51;16.00;99.90
19588;DHT22;9940;47.252;8.696;2023-05-07T05:23:17;16.00;99.90
19588;DHT22;9940;47.252;8.696;2023-05-07T05:25:42;16.00;99.90
19588;DHT22;9940;47.252;8.696;2023-05-07T05:28:08;16.00;99.90
19588;DHT22;9940;47.252;8.696;2023-05-07T05:30:34;16.00;99.90
19588;DHT22;9940;47.252;8.696;2023-05-07T05:33:02;16.00;99.90
19588;DHT22;9940;47.252;8.696;2023-05-07T05:35:27;16.00;99.90
19588;DHT22;9940;47.252;8.696;2023-05-07T05:37:55;16.10;99.90
19588;DHT22;9940;47.252;8.696;2023-05-07T05:40:23;16.10;99.90
19588;DHT22;9940;47.252;8.696;2023-05-07T05:42:48;16.20;99.90
19588;DHT22;9940;47.252;8.696;2023-05-07T05:45:14;16.20;99.90
19588;DHT22;9940;47.252;8.696;2023-05-07T05:47:41;16.20;99.90
19588;DHT22;9940;47.252;8.696;2023-05-07T05:50:07;16.20;99.90
19588;DHT22;9940;47.252;8.696;2023-05-07T05:52:35;16.30;99.90
19588;DHT22;9940;47.252;8.696;2023-05-07T05:55:00;16.30;99.90
19588;DHT22;9940;47.252;8.696;2023-05-07T05:57:26;16.20;99.90
19588;DHT22;9940;47.252;8.696;2023-05-07T05:59:52;16.30;99.90
19588;DHT22;9940;47.252;8.696;2023-05-07T06:02:17;16.30;99.90
19588;DHT22;9940;47.252;8.696;2023-05-07T06:04:43;16.40;99.90
19588;DHT22;9940;47.252;8.696;2023-05-07T06:07:08;16.40;99.90
19588;DHT22;9940;47.252;8.696;2023-05-07T06:09:36;16.50;99.90
19588;DHT22;9940;47.252;8.696;2023-05-07T06:12:02;16.50;99.90
19588;DHT22;9940;47.252;8.696;2023-05-07T06:14:33;16.50;99.90
19588;DHT22;9940;47.252;8.696;2023-05-07T06:17:01;16.50;99.90
19588;DHT22;9940;47.252;8.696;2023-05-07T06:19:26;16.50;99.90
19588;DHT22;9940;47.252;8.696;2023-05-07T06:21:53;16.50;99.90
19588;DHT22;9940;47.252;8.696;2023-05-07T06:24:19;16.50;99.90
19588;DHT22;9940;47.252;8.696;2023-05-07T06:26:49;16.60;99.90
19588;DHT22;9940;47.252;8.696;2023-05-07T06:29:17;16.60;99.90
19588;DHT22;9940;47.252;8.696;2023-05-07T06:31:42;16.70;99.90
19588;DHT22;9940;47.252;8.696;2023-05-07T06:34:10;16.80;99.90
19588;DHT22;9940;47.252;8.696;2023-05-07T06:36:40;16.90;99.90
19588;DHT22;9940;47.252;8.696;2023-05-07T06:39:05;16.90;99.90
19588;DHT22;9940;47.252;8.696;2023-05-07T06:41:33;16.90;99.90
19588;DHT22;9940;47.252;8.696;2023-05-07T06:44:01;17.00;99.90
19588;DHT22;9940;47.252;8.696;2023-05-07T06:46:29;17.10;99.90
19588;DHT22;9940;47.252;8.696;2023-05-07T06:48:55;17.20;99.90
19588;DHT22;9940;47.252;8.696;2023-05-07T06:51:22;17.30;99.90
19588;DHT22;9940;47.252;8.696;2023-05-07T06:53:52;17.30;99.90
19588;DHT22;9940;47.252;8.696;2023-05-07T06:56:20;17.30;99.90
19588;DHT22;9940;47.252;8.696;2023-05-07T06:58:46;17.30;99.90
19588;DHT22;9940;47.252;8.696;2023-05-07T07:01:14;17.30;99.90
19588;DHT22;9940;47.252;8.696;2023-05-07T07:03:40;17.30;99.50
19588;DHT22;9940;47.252;8.696;2023-05-07T07:06:06;17.30;99.30
19588;DHT22;9940;47.252;8.696;2023-05-07T07:08:31;17.30;99.20
19588;DHT22;9940;47.252;8.696;2023-05-07T07:11:00;17.30;99.00
19588;DHT22;9940;47.252;8.696;2023-05-07T07:13:25;17.30;98.60
19588;DHT22;9940;47.252;8.696;2023-05-07T07:15:52;17.40;98.30
19588;DHT22;9940;47.252;8.696;2023-05-07T07:18:18;17.40;97.90
19588;DHT22;9940;47.252;8.696;2023-05-07T07:20:47;17.40;97.20
19588;DHT22;9940;47.252;8.696;2023-05-07T07:23:15;17.50;96.80
19588;DHT22;9940;47.252;8.696;2023-05-07T07:25:41;17.50;96.60
19588;DHT22;9940;47.252;8.696;2023-05-07T07:28:07;17.50;96.80
19588;DHT22;9940;47.252;8.696;2023-05-07T07:30:32;17.60;97.20
19588;DHT22;9940;47.252;8.696;2023-05-07T07:32:58;17.60;97.50
19588;DHT22;9940;47.252;8.696;2023-05-07T07:35:31;17.70;97.80
19588;DHT22;9940;47.252;8.696;2023-05-07T07:38:00;17.70;98.00
19588;DHT22;9940;47.252;8.696;2023-05-07T07:40:29;17.80;98.20
19588;DHT22;9940;47.252;8.696;2023-05-07T07:42:57;17.90;98.70
19588;DHT22;9940;47.252;8.696;2023-05-07T07:45:22;17.90;99.00
19588;DHT22;9940;47.252;8.696;2023-05-07T07:47:48;18.00;99.60
19588;DHT22;9940;47.252;8.696;2023-05-07T07:50:14;18.10;99.90
19588;DHT22;9940;47.252;8.696;2023-05-07T07:52:42;18.20;99.90
19588;DHT22;9940;47.252;8.696;2023-05-07T07:55:08;18.30;99.90
19588;DHT22;9940;47.252;8.696;2023-05-07T07:57:34;18.40;99.80
19588;DHT22;9940;47.252;8.696;2023-05-07T08:00:02;18.60;99.30
19588;DHT22;9940;47.252;8.696;2023-05-07T08:02:34;18.80;98.60
19588;DHT22;9940;47.252;8.696;2023-05-07T08:04:59;19.00;97.70
19588;DHT22;9940;47.252;8.696;2023-05-07T08:07:25;19.00;96.70
19588;DHT22;9940;47.252;8.696;2023-05-07T08:09:50;19.10;96.00
19588;DHT22;9940;47.252;8.696;2023-05-07T08:12:18;19.10;95.60
19588;DHT22;9940;47.252;8.696;2023-05-07T08:14:44;19.10;95.20
19588;DHT22;9940;47.252;8.696;2023-05-07T08:17:10;19.10;94.70
19588;DHT22;9940;47.252;8.696;2023-05-07T08:19:35;19.10;94.00
19588;DHT22;9940;47.252;8.696;2023-05-07T08:22:02;19.10;93.20
19588;DHT22;9940;47.252;8.696;2023-05-07T08:24:29;19.10;92.60
19588;DHT22;9940;47.252;8.696;2023-05-07T08:26:54;19.20;92.30
19588;DHT22;9940;47.252;8.696;2023-05-07T08:29:20;19.20;92.10
19588;DHT22;9940;47.252;8.696;2023-05-07T08:31:46;19.30;91.80
19588;DHT22;9940;47.252;8.696;2023-05-07T08:34:13;19.30;91.50
19588;DHT22;9940;47.252;8.696;2023-05-07T08:36:39;19.40;91.20
19588;DHT22;9940;47.252;8.696;2023-05-07T08:39:10;19.40;90.80
19588;DHT22;9940;47.252;8.696;2023-05-07T08:41:40;19.50;90.40
19588;DHT22;9940;47.252;8.696;2023-05-07T08:44:12;19.50;90.00
19588;DHT22;9940;47.252;8.696;2023-05-07T08:46:39;19.60;89.60
19588;DHT22;9940;47.252;8.696;2023-05-07T08:49:07;19.60;89.40
19588;DHT22;9940;47.252;8.696;2023-05-07T08:51:36;19.60;89.30
19588;DHT22;9940;47.252;8.696;2023-05-07T08:54:02;19.70;89.50
19588;DHT22;9940;47.252;8.696;2023-05-07T08:56:27;19.70;89.70
19588;DHT22;9940;47.252;8.696;2023-05-07T08:58:55;19.70;89.90
19588;DHT22;9940;47.252;8.696;2023-05-07T09:01:24;19.80;89.90
19588;DHT22;9940;47.252;8.696;2023-05-07T09:03:50;19.80;88.90
19588;DHT22;9940;47.252;8.696;2023-05-07T09:06:19;20.00;87.90
19588;DHT22;9940;47.252;8.696;2023-05-07T09:08:52;20.10;87.00
19588;DHT22;9940;47.252;8.696;2023-05-07T09:11:24;20.30;86.10
19588;DHT22;9940;47.252;8.696;2023-05-07T09:13:54;20.50;84.30
19588;DHT22;9940;47.252;8.696;2023-05-07T09:16:21;20.70;82.00
19588;DHT22;9940;47.252;8.696;2023-05-07T09:18:51;20.80;81.10
19588;DHT22;9940;47.252;8.696;2023-05-07T09:21:18;21.00;80.80
19588;DHT22;9940;47.252;8.696;2023-05-07T09:23:44;21.10;80.50
19588;DHT22;9940;47.252;8.696;2023-05-07T09:26:09;21.30;79.90
19588;DHT22;9940;47.252;8.696;2023-05-07T09:28:43;21.50;79.00
19588;DHT22;9940;47.252;8.696;2023-05-07T09:31:10;21.70;78.40
19588;DHT22;9940;47.252;8.696;2023-05-07T09:33:38;21.90;77.60
19588;DHT22;9940;47.252;8.696;2023-05-07T09:36:05;22.20;76.30
19588;DHT22;9940;47.252;8.696;2023-05-07T09:38:35;22.30;74.50
19588;DHT22;9940;47.252;8.696;2023-05-07T09:43:33;22.50;73.30
19588;DHT22;9940;47.252;8.696;2023-05-07T09:46:03;22.40;72.80
19588;DHT22;9940;47.252;8.696;2023-05-07T09:48:32;22.50;72.70
19588;DHT22;9940;47.252;8.696;2023-05-07T09:51:06;22.50;72.10
19588;DHT22;9940;47.252;8.696;2023-05-07T09:53:36;22.50;72.00
19588;DHT22;9940;47.252;8.696;2023-05-07T09:56:03;22.40;72.30
19588;DHT22;9940;47.252;8.696;2023-05-07T09:58:29;22.30;72.80
19588;DHT22;9940;47.252;8.696;2023-05-07T10:00:56;22.30;73.20
19588;DHT22;9940;47.252;8.696;2023-05-07T10:03:24;22.30;73.60
19588;DHT22;9940;47.252;8.696;2023-05-07T10:05:55;22.40;73.60
19588;DHT22;9940;47.252;8.696;2023-05-07T10:08:21;22.50;73.50
19588;DHT22;9940;47.252;8.696;2023-05-07T10:10:47;22.60;73.50
19588;DHT22;9940;47.252;8.696;2023-05-07T10:13:14;22.70;73.70
19588;DHT22;9940;47.252;8.696;2023-05-07T10:15:45;22.60;74.80
19588;DHT22;9940;47.252;8.696;2023-05-07T10:18:12;22.40;76.20
19588;DHT22;9940;47.252;8.696;2023-05-07T10:20:43;22.30;77.00
19588;DHT22;9940;47.252;8.696;2023-05-07T10:23:13;22.20;77.60
19588;DHT22;9940;47.252;8.696;2023-05-07T10:25:40;22.10;78.00
19588;DHT22;9940;47.252;8.696;2023-05-07T10:28:10;22.20;78.20
19588;DHT22;9940;47.252;8.696;2023-05-07T10:33:28;22.60;77.00
19588;DHT22;9940;47.252;8.696;2023-05-07T10:35:59;22.80;75.90
19588;DHT22;9940;47.252;8.696;2023-05-07T10:38:29;22.70;75.30
19588;DHT22;9940;47.252;8.696;2023-05-07T10:40:58;22.50;75.30
19588;DHT22;9940;47.252;8.696;2023-05-07T10:43:38;22.30;75.60
19588;DHT22;9940;47.252;8.696;2023-05-07T10:51:32;22.60;74.70
19588;DHT22;9940;47.252;8.696;2023-05-07T10:56:42;22.90;74.20
19588;DHT22;9940;47.252;8.696;2023-05-07T11:04:21;23.70;72.50
19588;DHT22;9940;47.252;8.696;2023-05-07T11:12:17;24.40;67.80
19588;DHT22;9940;47.252;8.696;2023-05-07T11:17:11;24.60;66.70
19588;DHT22;9940;47.252;8.696;2023-05-07T11:24:59;24.20;66.30
19588;DHT22;9940;47.252;8.696;2023-05-07T11:27:26;24.30;66.10
19588;DHT22;9940;47.252;8.696;2023-05-07T11:29:52;24.50;65.20
19588;DHT22;9940;47.252;8.696;2023-05-07T11:32:24;24.90;64.20
19588;DHT22;9940;47.252;8.696;2023-05-07T11:34:54;25.40;63.00
19588;DHT22;9940;47.252;8.696;2023-05-07T11:37:20;25.80;61.80
19588;DHT22;9940;47.252;8.696;2023-05-07T11:39:46;26.10;60.80
19588;DHT22;9940;47.252;8.696;2023-05-07T11:42:31;26.20;60.00
19588;DHT22;9940;47.252;8.696;2023-05-07T11:45:00;26.10;59.80
19588;DHT22;9940;47.252;8.696;2023-05-07T11:47:26;25.90;59.90
19588;DHT22;9940;47.252;8.696;2023-05-07T11:50:07;25.70;59.60
19588;DHT22;9940;47.252;8.696;2023-05-07T11:52:38;25.50;59.20
19588;DHT22;9940;47.252;8.696;2023-05-07T11:55:04;25.50;58.90
19588;DHT22;9940;47.252;8.696;2023-05-07T11:57:30;25.80;58.60
19588;DHT22;9940;47.252;8.696;2023-05-07T11:59:59;26.50;57.70
19588;DHT22;9940;47.252;8.696;2023-05-07T12:02:28;27.50;56.50
19588;DHT22;9940;47.252;8.696;2023-05-07T12:04:56;29.10;54.30
19588;DHT22;9940;47.252;8.696;2023-05-07T12:07:21;30.00;51.90
19588;DHT22;9940;47.252;8.696;2023-05-07T12:09:49;29.80;51.30
19588;DHT22;9940;47.252;8.696;2023-05-07T12:12:15;29.40;51.60
19588;DHT22;9940;47.252;8.696;2023-05-07T12:14:43;28.80;52.20
19588;DHT22;9940;47.252;8.696;2023-05-07T12:17:11;28.40;53.00
19588;DHT22;9940;47.252;8.696;2023-05-07T12:19:40;28.20;53.00
19588;DHT22;9940;47.252;8.696;2023-05-07T12:22:10;28.20;52.70
19588;DHT22;9940;47.252;8.696;2023-05-07T12:25:02;28.60;51.90
19588;DHT22;9940;47.252;8.696;2023-05-07T12:27:30;29.20;50.90
19588;DHT22;9940;47.252;8.696;2023-05-07T12:29:57;30.60;49.70
19588;DHT22;9940;47.252;8.696;2023-05-07T12:32:25;30.70;49.70
19588;DHT22;9940;47.252;8.696;2023-05-07T12:34:54;31.10;48.80
19588;DHT22;9940;47.252;8.696;2023-05-07T12:37:25;31.30;48.40
19588;DHT22;9940;47.252;8.696;2023-05-07T12:40:13;32.10;47.80
19588;DHT22;9940;47.252;8.696;2023-05-07T12:42:40;33.10;46.00
19588;DHT22;9940;47.252;8.696;2023-05-07T12:45:15;33.60;46.30
19588;DHT22;9940;47.252;8.696;2023-05-07T12:47:47;34.80;44.80
19588;DHT22;9940;47.252;8.696;2023-05-07T12:52:45;36.10;43.30
19588;DHT22;9940;47.252;8.696;2023-05-07T12:55:14;36.30;43.20
19588;DHT22;9940;47.252;8.696;2023-05-07T12:57:42;36.70;42.60
19588;DHT22;9940;47.252;8.696;2023-05-07T13:00:11;37.10;42.30
19588;DHT22;9940;47.252;8.696;2023-05-07T13:02:43;37.60;41.90
19588;DHT22;9940;47.252;8.696;2023-05-07T13:05:12;38.10;41.30
19588;DHT22;9940;47.252;8.696;2023-05-07T13:07:40;38.20;41.20
19588;DHT22;9940;47.252;8.696;2023-05-07T13:10:07;37.80;41.20
19588;DHT22;9940;47.252;8.696;2023-05-07T13:12:35;37.80;41.80
19588;DHT22;9940;47.252;8.696;2023-05-07T13:15:03;38.00;41.80
19588;DHT22;9940;47.252;8.696;2023-05-07T13:17:29;38.30;41.30
19588;DHT22;9940;47.252;8.696;2023-05-07T13:19:56;38.40;41.70
19588;DHT22;9940;47.252;8.696;2023-05-07T13:22:22;38.00;42.30
19588;DHT22;9940;47.252;8.696;2023-05-07T13:24:48;37.80;41.90
19588;DHT22;9940;47.252;8.696;2023-05-07T13:27:13;37.80;42.00
19588;DHT22;9940;47.252;8.696;2023-05-07T13:29:41;37.90;41.90
19588;DHT22;9940;47.252;8.696;2023-05-07T13:32:07;38.40;41.60
19588;DHT22;9940;47.252;8.696;2023-05-07T13:34:35;39.00;41.00
19588;DHT22;9940;47.252;8.696;2023-05-07T13:37:00;38.70;40.80
19588;DHT22;9940;47.252;8.696;2023-05-07T13:39:31;38.40;40.90
19588;DHT22;9940;47.252;8.696;2023-05-07T13:41:59;37.50;41.10
19588;DHT22;9940;47.252;8.696;2023-05-07T13:44:25;37.00;41.20
19588;DHT22;9940;47.252;8.696;2023-05-07T13:46:51;35.80;41.80
19588;DHT22;9940;47.252;8.696;2023-05-07T13:49:19;34.10;43.00
19588;DHT22;9940;47.252;8.696;2023-05-07T13:54:11;32.50;44.60
19588;DHT22;9940;47.252;8.696;2023-05-07T13:56:41;29.90;47.40
19588;DHT22;9940;47.252;8.696;2023-05-07T13:59:07;28.90;48.60
19588;DHT22;9940;47.252;8.696;2023-05-07T14:01:32;28.10;49.70
19588;DHT22;9940;47.252;8.696;2023-05-07T14:03:58;27.40;50.40
19588;DHT22;9940;47.252;8.696;2023-05-07T14:06:25;26.90;51.30
19588;DHT22;9940;47.252;8.696;2023-05-07T14:08:51;26.50;52.30
19588;DHT22;9940;47.252;8.696;2023-05-07T14:11:17;26.10;53.40
19588;DHT22;9940;47.252;8.696;2023-05-07T14:13:46;25.90;54.30
19588;DHT22;9940;47.252;8.696;2023-05-07T14:16:14;25.80;55.00
19588;DHT22;9940;47.252;8.696;2023-05-07T14:18:40;25.60;55.60
19588;DHT22;9940;47.252;8.696;2023-05-07T14:21:05;25.20;56.50
19588;DHT22;9940;47.252;8.696;2023-05-07T14:23:35;24.90;57.10
19588;DHT22;9940;47.252;8.696;2023-05-07T14:26:00;24.50;57.70
19588;DHT22;9940;47.252;8.696;2023-05-07T14:28:26;24.20;58.40
19588;DHT22;9940;47.252;8.696;2023-05-07T14:30:51;23.90;59.10
19588;DHT22;9940;47.252;8.696;2023-05-07T14:33:17;23.60;59.70
19588;DHT22;9940;47.252;8.696;2023-05-07T14:35:45;23.40;60.40
19588;DHT22;9940;47.252;8.696;2023-05-07T14:38:16;23.20;61.10
19588;DHT22;9940;47.252;8.696;2023-05-07T14:40:42;23.00;61.90
19588;DHT22;9940;47.252;8.696;2023-05-07T14:45:38;22.70;62.90
19588;DHT22;9940;47.252;8.696;2023-05-07T14:48:04;22.50;63.80
19588;DHT22;9940;47.252;8.696;2023-05-07T14:50:30;22.30;64.20
19588;DHT22;9940;47.252;8.696;2023-05-07T14:53:00;22.20;64.70
19588;DHT22;9940;47.252;8.696;2023-05-07T14:55:28;22.00;65.00
19588;DHT22;9940;47.252;8.696;2023-05-07T14:57:53;21.80;65.30
19588;DHT22;9940;47.252;8.696;2023-05-07T15:00:19;21.60;65.70
19588;DHT22;9940;47.252;8.696;2023-05-07T15:02:45;21.50;66.10
19588;DHT22;9940;47.252;8.696;2023-05-07T15:05:13;21.30;66.60
19588;DHT22;9940;47.252;8.696;2023-05-07T15:07:40;21.20;67.20
19588;DHT22;9940;47.252;8.696;2023-05-07T15:10:06;21.10;67.80
19588;DHT22;9940;47.252;8.696;2023-05-07T15:12:34;21.00;68.50
19588;DHT22;9940;47.252;8.696;2023-05-07T15:14:59;20.90;69.40
19588;DHT22;9940;47.252;8.696;2023-05-07T15:17:25;20.70;70.70
19588;DHT22;9940;47.252;8.696;2023-05-07T15:19:51;20.70;72.20
19588;DHT22;9940;47.252;8.696;2023-05-07T15:22:17;20.50;73.60
19588;DHT22;9940;47.252;8.696;2023-05-07T15:24:42;20.40;75.00
19588;DHT22;9940;47.252;8.696;2023-05-07T15:27:10;20.20;76.20
19588;DHT22;9940;47.252;8.696;2023-05-07T15:29:35;20.10;77.70
19588;DHT22;9940;47.252;8.696;2023-05-07T15:32:01;20.00;79.40
19588;DHT22;9940;47.252;8.696;2023-05-07T15:34:26;19.80;81.30
19588;DHT22;9940;47.252;8.696;2023-05-07T15:36:55;19.80;83.50
19588;DHT22;9940;47.252;8.696;2023-05-07T15:39:22;19.80;86.10
19588;DHT22;9940;47.252;8.696;2023-05-07T15:41:52;19.70;88.70
19588;DHT22;9940;47.252;8.696;2023-05-07T15:44:17;19.70;90.50
19588;DHT22;9940;47.252;8.696;2023-05-07T15:46:43;19.70;91.30
19588;DHT22;9940;47.252;8.696;2023-05-07T15:49:08;19.60;92.20
19588;DHT22;9940;47.252;8.696;2023-05-07T15:51:34;19.60;93.00
19588;DHT22;9940;47.252;8.696;2023-05-07T15:54:00;19.50;93.80
19588;DHT22;9940;47.252;8.696;2023-05-07T15:56:28;19.40;94.70
19588;DHT22;9940;47.252;8.696;2023-05-07T15:58:58;19.40;95.20
19588;DHT22;9940;47.252;8.696;2023-05-07T16:01:24;19.40;96.00
19588;DHT22;9940;47.252;8.696;2023-05-07T16:03:50;19.40;96.50
19588;DHT22;9940;47.252;8.696;2023-05-07T16:06:17;19.40;96.80
19588;DHT22;9940;47.252;8.696;2023-05-07T16:08:43;19.40;97.20
19588;DHT22;9940;47.252;8.696;2023-05-07T16:11:09;19.30;97.80
19588;DHT22;9940;47.252;8.696;2023-05-07T16:13:35;19.30;98.30
19588;DHT22;9940;47.252;8.696;2023-05-07T16:16:03;19.30;98.90
19588;DHT22;9940;47.252;8.696;2023-05-07T16:18:31;19.20;99.50
19588;DHT22;9940;47.252;8.696;2023-05-07T16:21:00;19.20;99.90
19588;DHT22;9940;47.252;8.696;2023-05-07T16:23:25;19.10;99.90
19588;DHT22;9940;47.252;8.696;2023-05-07T16:25:53;19.10;99.90